• Join FlightAware (Why Join?)
  • Login
  • US Flag 
12:18AM EDT


 

Airport Tracker/Info


-or-


 

Live Flight TrackerFlight Track Log ✈ VNR104 ✈ 09-May-2013 ✈ KICR - KPTS

Flight Track Log - Related Links

Times and Time Zones

All times are in EDT time to prevent confusion due to time zone crossing. See the VNR104 flight status page for this flight to view local times or setup timezone preferences in your user account.

Time Position Orientation Groundspeed Altitude Reporting Facility
EDT Latitude Longitude Course Direction KTS MPH feet Rate Location/Type
05:00PM 43.2875 -99.7997 151° Southeast 206 237 10,600  Level Minneapolis Center
05:01PM 43.2383 -99.7622 151° Southeast 204 235 13,200 2,340 Climbing Minneapolis Center
05:02PM 43.1881 -99.7258 152° Southeast 204 235 15,500 1,740 Climbing Minneapolis Center
05:03PM 43.1342 -99.6800 148° Southeast 218 251 16,800 1,080 Climbing Minneapolis Center
05:04PM 43.0681 -99.6133 144° Southeast 274 315 17,800 1,140 Climbing Minneapolis Center
05:06PM 42.9836 -99.5347 146° Southeast 301 346 19,200 1,260 Climbing Minneapolis Center
05:07PM 42.9125 -99.4656 145° Southeast 312 359 20,500 1,380 Climbing Minneapolis Center
05:08PM 42.8419 -99.3983 145° Southeast 311 358 22,100 1,500 Climbing Minneapolis Center
05:09PM 42.7717 -99.3314 145° Southeast 309 356 23,600 1,440 Climbing Minneapolis Center
05:10PM 42.7017 -99.2664 146° Southeast 306 352 25,100 1,440 Climbing Minneapolis Center
05:11PM 42.6333 -99.2000 144° Southeast 301 346 26,600 1,440 Climbing Minneapolis Center
05:12PM 42.5653 -99.1364 145° Southeast 298 343 28,100 1,140 Climbing Minneapolis Center
05:13PM 42.4828 -99.0583 145° Southeast 301 346 29,000 420 Climbing Minneapolis Center
05:14PM 42.4050 -98.9842 145° Southeast 332 382 29,000  Level Minneapolis Center
05:15PM 42.3225 -98.9083 146° Southeast 350 403 29,000  Level Minneapolis Center
05:16PM 42.2369 -98.8278 145° Southeast 367 422 29,000  Level Minneapolis Center
05:17PM 42.1519 -98.7481 145° Southeast 371 427 29,000  Level Minneapolis Center
05:18PM 42.0639 -98.6675 146° Southeast 377 434 29,000  Level Minneapolis Center
05:19PM 41.9608 -98.5711 145° Southeast 377 434 29,000  Level Minneapolis Center
05:20PM 41.8733 -98.4911 146° Southeast 379 436 29,000  Level Minneapolis Center
05:21PM 41.7867 -98.4100 145° Southeast 378 435 29,000  Level Minneapolis Center
05:22PM 41.6986 -98.3294 146° Southeast 379 436 29,000  Level Minneapolis Center
05:23PM 41.6111 -98.2494 146° Southeast 380 437 29,000  Level Minneapolis Center
05:24PM 41.5242 -98.1717 146° Southeast 376 433 29,000  Level Minneapolis Center
05:25PM 41.4386 -98.0944 146° Southeast 377 434 29,000  Level Minneapolis Center
05:26PM 41.3350 -98.0011 146° Southeast 376 433 29,000  Level Minneapolis Center
05:27PM 41.2456 -97.9219 146° Southeast 373 429 29,000  Level Minneapolis Center
05:28PM 41.1592 -97.8428 145° Southeast 374 430 29,000  Level Minneapolis Center
05:29PM 41.0728 -97.7664 146° Southeast 372 428 29,000  Level Minneapolis Center
05:30PM 40.9853 -97.6886 146° Southeast 375 432 29,000  Level Minneapolis Center
05:31PM 40.8975 -97.6108 146° Southeast 377 434 29,000  Level Minneapolis Center
05:32PM 40.8108 -97.5342 146° Southeast 375 432 29,000  Level Minneapolis Center
05:33PM 40.7239 -97.4583 147° Southeast 373 429 29,000  Level Minneapolis Center
05:34PM 40.6211 -97.3658 146° Southeast 372 428 29,000  Level Minneapolis Center
05:36PM 40.5428 -97.2975 146° Southeast 373 429 29,000  Level Minneapolis Center
05:37PM 40.4556 -97.2219 147° Southeast 374 430 29,000  Level Minneapolis Center
05:38PM 40.3519 -97.1314 146° Southeast 373 429 29,000  Level Minneapolis Center
05:39PM 40.2664 -97.0569 146° Southeast 371 427 29,000  Level Minneapolis Center
05:40PM 40.1792 -96.9836 147° Southeast 373 429 29,000  Level Minneapolis Center
05:41PM 40.0942 -96.9081 146° Southeast 371 427 29,000  Level Minneapolis Center
05:42PM 40.0081 -96.8342 147° Southeast 371 427 29,000  Level Minneapolis Center
05:43PM 39.9206 -96.7592 147° Southeast 374 430 29,000  Level Minneapolis Center
05:44PM 39.8222 -96.6756 147° Southeast 375 432 29,000  Level Kansas City Center
05:45PM 39.7408 -96.6078 147° Southeast 375 432 29,000  Level Kansas City Center
05:46PM 39.6433 -96.5242 147° Southeast 376 433 29,000  Level Kansas City Center
05:47PM 39.5589 -96.4522 147° Southeast 379 436 29,000  Level Kansas City Center
05:48PM 39.4742 -96.3797 147° Southeast 374 430 29,000  Level Kansas City Center
05:49PM 39.3864 -96.3058 147° Southeast 375 432 29,000  Level Kansas City Center
05:50PM 39.2972 -96.2311 147° Southeast 379 436 29,000  Level Kansas City Center
05:51PM 39.1925 -96.1458 148° Southeast 382 440 29,000  Level Kansas City Center
05:52PM 39.0942 -96.0636 147° Southeast 378 435 29,000  Level Kansas City Center
05:53PM 39.0094 -95.9939 147° Southeast 380 437 29,000  Level Kansas City Center
05:54PM 38.9106 -95.9114 147° Southeast 381 438 29,000  Level Kansas City Center
05:55PM 38.8247 -95.8417 148° Southeast 382 440 29,000  Level Kansas City Center
05:56PM 38.7267 -95.7594 147° Southeast 379 436 29,000  Level Kansas City Center
05:57PM 38.6406 -95.6894 148° Southeast 383 441 29,000  Level Kansas City Center
05:58PM 38.5544 -95.6200 148° Southeast 383 441 29,000  Level Kansas City Center
05:59PM 38.4575 -95.5403 147° Southeast 373 429 29,000 -600 Level Kansas City Center
06:00PM 38.3844 -95.4797 147° Southeast 331 381 27,800 -1,860 Descending Kansas City Center
06:01PM 38.3044 -95.4164 148° Southeast 310 357 25,200 -2,340 Descending Kansas City Center
06:02PM 38.2378 -95.3633 148° Southeast 302 348 23,000 -2,340 Descending Kansas City Center
06:03PM 38.1594 -95.2944 145° Southeast 307 353 20,400 -2,340 Descending Kansas City Center
06:04PM 38.0858 -95.2303 146° Southeast 333 383 18,200 -2,280 Descending Kansas City Center
06:05PM 38.0050 -95.1583 145° Southeast 316 364 15,700 -2,280 Descending Kansas City Center
06:06PM 37.9378 -95.0997 145° Southeast 308 354 13,500 -2,340 Descending Kansas City Center
06:07PM 37.8617 -95.0333 145° Southeast 299 344 10,900 -2,340 Descending Kansas City Center
06:09PM 37.8008 -94.9789 145° Southeast 287 330 8,700 -2,340 Descending Kansas City Center
06:10PM 37.7361 -94.9228 146° Southeast 262 302 6,100 -2,400 Descending Kansas City Center
06:11PM 37.6803 -94.8744 146° Southeast 247 284 3,800 -2,280 Descending Kansas City Center